CheckWX is a tool to help pilots better visualize weather data.  It is not intended as a substitute for an official pre-flight weather briefing.

11:56:58 UTC

KENW TAF
Kenosha Regional Airport
Kenosha, Wisconsin, USA
KENW 271134Z 2712/2812 32005KT P6SM VCSH OVC011 TEMPO 2713/2714 5SM -SN FM271400 32005KT P6SM OVC014 FM272300 VRB03KT P6SM OVC015

Jan-27@
12:00 UTC

Jan-27 @ 12:00 UTC

Jan-27@
14:00 UTC

Jan-27 @ 14:00 UTC

KENW 271134Z 2712/2812 32005KT P6SM VCSH OVC011
Wind
  • 320° at 5 KTS
Cloud Levels
  • Overcast at 1,100' AGL

Jan-27@
13:00 UTC

Jan-27 @ 13:00 UTC

Jan-27@
14:00 UTC

Jan-27 @ 14:00 UTC

TEMPO 2713/2714 5SM -SN

Temporary

Temporary Changes expected for less than half the time period

Conditions
Light Snow

Jan-27@
14:00 UTC

Jan-27 @ 14:00 UTC

Jan-27@
23:00 UTC

Jan-27 @ 23:00 UTC

FM271400 32005KT P6SM OVC014

From

From Standard forecast or significant change

Wind
  • 320° at 5 KTS
Cloud Levels
  • Overcast at 1,400' AGL

Jan-27@
23:00 UTC

Jan-27 @ 23:00 UTC

Jan-28@
12:00 UTC

Jan-28 @ 12:00 UTC

FM272300 VRB03KT P6SM OVC015

From

From Standard forecast or significant change

Wind
  • Variable at 3 KTS
Cloud Levels
  • Overcast at 1,500' AGL